createdAt,value
2019-02-25T00:00:58.062Z,-0.60
2019-02-25T00:03:32.982Z,-0.60
2019-02-25T00:06:05.339Z,-0.70
2019-02-25T00:08:37.695Z,-0.70
2019-02-25T00:11:09.927Z,-0.70
2019-02-25T00:13:42.209Z,-0.70
2019-02-25T00:16:14.383Z,-0.80
2019-02-25T00:18:48.045Z,-0.80
2019-02-25T00:21:20.143Z,-0.70
2019-02-25T00:23:53.484Z,-0.60
2019-02-25T00:26:26.751Z,-0.70
2019-02-25T00:28:58.916Z,-0.70
2019-02-25T00:31:30.944Z,-0.70
2019-02-25T00:34:04.144Z,-0.70
2019-02-25T00:36:36.085Z,-0.70
2019-02-25T00:39:08.879Z,-0.70
2019-02-25T00:41:42.055Z,-0.60
2019-02-25T00:44:14.030Z,-0.70
2019-02-25T00:46:46.085Z,-0.70
2019-02-25T00:49:19.305Z,-0.60
2019-02-25T00:51:52.946Z,-0.60
2019-02-25T00:54:26.618Z,-0.50
2019-02-25T00:56:58.828Z,-0.50
2019-02-25T00:59:31.121Z,-0.50
2019-02-25T01:02:06.489Z,-0.50
2019-02-25T01:04:39.871Z,-0.50
2019-02-25T01:07:13.056Z,-0.60
2019-02-25T01:09:45.026Z,-0.70
2019-02-25T01:12:18.444Z,-0.80
2019-02-25T01:14:51.661Z,-0.80
2019-02-25T01:17:23.805Z,-0.90
2019-02-25T01:19:55.838Z,-0.90
2019-02-25T01:22:27.993Z,-0.90
2019-02-25T01:25:02.268Z,-0.90
2019-02-25T01:27:34.839Z,-1.00
2019-02-25T01:30:08.927Z,-1.00
2019-02-25T01:32:43.356Z,-0.90
2019-02-25T01:35:15.474Z,-0.90
2019-02-25T01:37:49.691Z,-0.90
2019-02-25T01:40:22.828Z,-1.00
2019-02-25T01:42:55.817Z,-1.00
2019-02-25T01:45:29.888Z,-1.00
2019-02-25T01:48:03.957Z,-1.00
2019-02-25T01:50:36.986Z,-1.00
2019-02-25T01:53:08.810Z,-1.00
2019-02-25T01:55:42.700Z,-1.00
2019-02-25T01:58:15.908Z,-1.10
2019-02-25T02:00:50.409Z,-1.10
2019-02-25T02:03:24.539Z,-1.00
2019-02-25T02:05:59.294Z,-1.00
2019-02-25T02:08:32.539Z,-1.00
2019-02-25T02:11:05.704Z,-1.00
2019-02-25T02:13:37.739Z,-1.00
2019-02-25T02:16:11.186Z,-1.00
2019-02-25T02:18:44.108Z,-1.00
2019-02-25T02:21:18.548Z,-1.00
2019-02-25T02:23:54.045Z,-0.90
2019-02-25T02:26:27.174Z,-0.90
2019-02-25T02:28:59.078Z,-0.80
2019-02-25T02:31:30.950Z,-0.90
2019-02-25T02:34:04.042Z,-0.90
2019-02-25T02:36:37.120Z,-1.00
2019-02-25T02:39:10.518Z,-1.10
2019-02-25T02:42:17.118Z,-1.10
2019-02-25T02:44:52.896Z,-1.10
2019-02-25T02:47:39.513Z,-1.20
2019-02-25T02:50:15.589Z,-1.20
2019-02-25T02:52:48.618Z,-1.30
2019-02-25T02:55:21.690Z,-1.30
2019-02-25T02:57:56.954Z,-1.30
2019-02-25T03:00:29.855Z,-1.30
2019-02-25T03:03:01.708Z,-1.40
2019-02-25T03:05:34.974Z,-1.40
2019-02-25T03:08:07.086Z,-1.40
2019-02-25T03:10:39.976Z,-1.40
2019-02-25T03:13:16.092Z,-1.40
2019-02-25T03:15:49.027Z,-1.40
2019-02-25T03:18:21.465Z,-1.50
2019-02-25T03:20:55.887Z,-1.50
2019-02-25T03:23:33.165Z,-1.50
2019-02-25T03:26:05.063Z,-1.50
2019-02-25T03:28:39.405Z,-1.50
2019-02-25T03:31:14.428Z,-1.50
2019-02-25T03:33:48.759Z,-1.60
2019-02-25T03:36:24.156Z,-1.60
2019-02-25T03:38:58.345Z,-1.50
2019-02-25T03:41:31.567Z,-1.50
2019-02-25T03:44:04.772Z,-1.50
2019-02-25T03:46:39.119Z,-1.60
2019-02-25T03:49:13.496Z,-1.60
2019-02-25T03:51:46.693Z,-1.60
2019-02-25T03:54:18.691Z,-1.60
2019-02-25T03:56:53.059Z,-1.60
2019-02-25T03:59:27.512Z,-1.60
2019-02-25T04:02:00.649Z,-1.60
2019-02-25T04:04:32.567Z,-1.60
2019-02-25T04:07:04.458Z,-1.60
2019-02-25T04:09:36.326Z,-1.60
2019-02-25T04:12:10.909Z,-1.50
2019-02-25T04:14:43.810Z,-1.50
2019-02-25T04:17:17.869Z,-1.50
2019-02-25T04:19:49.841Z,-1.50
2019-02-25T04:22:24.147Z,-1.50
2019-02-25T04:24:57.378Z,-1.50
2019-02-25T04:27:32.097Z,-1.60
2019-02-25T04:30:15.246Z,-1.60
2019-02-25T04:32:58.443Z,-1.60
2019-02-25T04:35:42.003Z,-1.70
2019-02-25T04:38:13.909Z,-1.70
2019-02-25T04:40:45.827Z,-1.70
2019-02-25T04:43:17.705Z,-1.70
2019-02-25T04:45:49.623Z,-1.70
2019-02-25T04:48:22.463Z,-1.80
2019-02-25T04:50:54.291Z,-1.80
2019-02-25T04:53:26.227Z,-1.80
2019-02-25T04:55:58.138Z,-1.70
2019-02-25T04:58:30.018Z,-1.80
2019-02-25T05:01:07.837Z,-1.80
2019-02-25T05:03:52.492Z,-1.80
2019-02-25T05:06:29.666Z,-1.80
2019-02-25T05:09:01.626Z,-1.80
2019-02-25T05:11:38.612Z,-1.70
2019-02-25T05:14:12.638Z,-1.80
2019-02-25T05:16:44.600Z,-1.80
2019-02-25T05:19:18.520Z,-1.80
2019-02-25T05:21:50.411Z,-1.80
2019-02-25T05:24:22.261Z,-1.90
2019-02-25T05:26:54.149Z,-1.90
2019-02-25T05:29:26.203Z,-1.90
2019-02-25T05:31:59.135Z,-1.90
2019-02-25T05:34:31.100Z,-1.90
2019-02-25T05:37:02.945Z,-1.90
2019-02-25T05:39:34.880Z,-1.90
2019-02-25T05:42:06.827Z,-2.00
2019-02-25T05:44:38.694Z,-1.90
2019-02-25T05:47:11.608Z,-2.00
2019-02-25T05:49:43.423Z,-2.00
2019-02-25T05:52:15.337Z,-2.00
2019-02-25T05:54:47.215Z,-2.00
2019-02-25T05:57:19.105Z,-1.90
2019-02-25T05:59:50.932Z,-1.80
2019-02-25T06:02:28.368Z,-1.70
2019-02-25T06:05:01.757Z,-1.80
2019-02-25T06:07:33.823Z,-1.80
2019-02-25T06:10:06.275Z,-1.80
2019-02-25T06:12:38.266Z,-1.80
2019-02-25T06:15:12.511Z,-1.80
2019-02-25T06:17:44.474Z,-1.80
2019-02-25T06:20:16.338Z,-1.80
2019-02-25T06:22:48.298Z,-1.70
2019-02-25T06:25:20.191Z,-1.70
2019-02-25T06:27:52.345Z,-1.70
2019-02-25T06:30:24.279Z,-1.70
2019-02-25T06:32:56.235Z,-1.70
2019-02-25T06:35:28.148Z,-1.70
2019-02-25T06:38:00.345Z,-1.70
2019-02-25T06:40:32.377Z,-1.70
2019-02-25T06:43:04.361Z,-1.70
2019-02-25T06:45:36.338Z,-1.60
2019-02-25T06:48:08.303Z,-1.50
2019-02-25T06:50:40.298Z,-1.40
2019-02-25T06:53:12.261Z,-1.30
2019-02-25T06:55:44.180Z,-1.30
2019-02-25T06:58:16.993Z,-1.10
2019-02-25T07:00:48.913Z,-1.10
2019-02-25T07:03:20.878Z,-1.00
2019-02-25T07:06:14.514Z,-0.90
2019-02-25T07:09:11.723Z,-0.80
2019-02-25T07:11:53.745Z,-0.80
2019-02-25T07:14:37.186Z,-0.70
2019-02-25T07:17:27.935Z,-0.60
2019-02-25T07:20:09.553Z,-0.50
2019-02-25T07:22:46.632Z,-0.40
2019-02-25T07:25:30.187Z,-0.30
2019-02-25T07:28:27.667Z,-0.20
2019-02-25T07:31:24.143Z,0.00
2019-02-25T07:34:13.589Z,0.10
2019-02-25T07:36:56.773Z,0.30
2019-02-25T07:39:46.115Z,0.40
2019-02-25T07:42:34.521Z,0.60
2019-02-25T07:45:45.994Z,0.70
2019-02-25T07:48:42.738Z,0.90
2019-02-25T07:51:36.282Z,1.10
2019-02-25T07:54:27.038Z,1.40
2019-02-25T07:57:29.933Z,1.60
2019-02-25T08:00:08.753Z,1.80
2019-02-25T08:02:53.802Z,1.90
2019-02-25T08:05:50.674Z,2.10
2019-02-25T08:08:38.389Z,2.30
2019-02-25T08:11:21.852Z,2.50
2019-02-25T08:14:01.560Z,2.60
2019-02-25T08:16:48.376Z,2.80
2019-02-25T08:19:41.879Z,3.00
2019-02-25T08:22:31.337Z,3.20
2019-02-25T08:25:13.093Z,3.40
2019-02-25T08:28:06.610Z,3.50
2019-02-25T08:30:49.848Z,3.70
2019-02-25T08:33:40.574Z,3.90
2019-02-25T08:37:11.205Z,4.00
2019-02-25T08:39:56.937Z,4.20
2019-02-25T08:42:38.335Z,4.30
2019-02-25T08:45:32.082Z,4.40
2019-02-25T08:48:08.705Z,4.50
2019-02-25T08:50:40.584Z,4.60
2019-02-25T08:53:12.472Z,4.80
2019-02-25T08:55:44.306Z,4.90
2019-02-25T08:58:17.326Z,5.00
2019-02-25T09:00:49.186Z,5.10
2019-02-25T09:03:21.048Z,5.20
2019-02-25T09:05:52.959Z,5.40
2019-02-25T09:08:24.775Z,5.60
2019-02-25T09:10:56.594Z,5.70
2019-02-25T09:13:28.518Z,5.90
2019-02-25T09:16:00.337Z,6.20
2019-02-25T09:18:32.357Z,6.40
2019-02-25T09:21:04.285Z,6.60
2019-02-25T09:23:36.190Z,6.80
2019-02-25T09:26:08.025Z,7.00
2019-02-25T09:28:40.980Z,7.20
2019-02-25T09:31:12.856Z,7.30
2019-02-25T09:33:44.747Z,7.40
2019-02-25T09:36:16.636Z,7.50
2019-02-25T09:38:48.483Z,7.60
2019-02-25T09:41:29.474Z,7.80
2019-02-25T09:43:53.847Z,7.90
2019-02-25T09:46:26.198Z,8.10
2019-02-25T09:48:58.116Z,8.30
2019-02-25T09:51:29.993Z,8.60
2019-02-25T09:54:01.887Z,8.80
2019-02-25T09:56:33.722Z,9.10
2019-02-25T09:59:05.612Z,9.20
2019-02-25T10:01:37.594Z,9.30
2019-02-25T10:04:09.537Z,9.50
2019-02-25T10:06:42.294Z,9.70
2019-02-25T10:09:14.110Z,9.80
2019-02-25T10:11:45.991Z,10.00
2019-02-25T10:14:17.925Z,10.10
2019-02-25T10:16:49.783Z,10.30
2019-02-25T10:19:21.691Z,10.40
2019-02-25T10:21:53.584Z,10.50
2019-02-25T10:24:25.459Z,10.60
2019-02-25T10:26:57.404Z,10.60
2019-02-25T10:29:29.243Z,10.70
2019-02-25T10:32:02.592Z,10.90
2019-02-25T10:34:34.507Z,11.10
2019-02-25T10:37:06.347Z,11.30
2019-02-25T10:39:38.132Z,11.50
2019-02-25T10:42:09.974Z,11.70
2019-02-25T10:44:41.983Z,11.90
2019-02-25T10:47:15.622Z,12.00
2019-02-25T10:49:47.402Z,12.00
2019-02-25T10:52:19.259Z,12.00
2019-02-25T10:54:52.453Z,12.00
2019-02-25T10:57:27.185Z,12.10
2019-02-25T10:59:58.758Z,12.20
2019-02-25T11:02:30.725Z,12.40
2019-02-25T11:05:02.601Z,12.50
2019-02-25T11:07:34.920Z,12.60
2019-02-25T11:10:22.380Z,12.70
2019-02-25T11:12:55.497Z,12.80
2019-02-25T11:15:28.999Z,12.90
2019-02-25T11:18:00.961Z,13.00
2019-02-25T11:20:33.419Z,13.20
2019-02-25T11:23:05.883Z,13.30
2019-02-25T11:25:37.791Z,13.40
2019-02-25T11:28:22.673Z,13.50
2019-02-25T11:30:44.866Z,13.70
2019-02-25T11:33:16.636Z,13.90
2019-02-25T11:35:48.511Z,14.10
2019-02-25T11:38:20.277Z,14.20
2019-02-25T11:40:52.175Z,14.30
2019-02-25T11:43:24.116Z,14.50
2019-02-25T11:45:55.903Z,14.70
2019-02-25T11:48:27.701Z,14.90
2019-02-25T11:50:59.493Z,15.10
2019-02-25T11:53:31.391Z,15.20
2019-02-25T11:56:03.206Z,15.40
2019-02-25T11:58:35.067Z,15.60
2019-02-25T12:01:06.989Z,15.80
2019-02-25T12:03:38.877Z,15.90
2019-02-25T12:06:10.783Z,16.10
2019-02-25T12:08:42.962Z,16.20
2019-02-25T12:11:14.835Z,16.40
2019-02-25T12:13:46.657Z,16.60
2019-02-25T12:16:18.543Z,16.70
2019-02-25T12:18:50.416Z,16.90
2019-02-25T12:21:22.265Z,16.90
2019-02-25T12:23:54.137Z,16.90
2019-02-25T12:26:26.081Z,17.00
2019-02-25T12:28:57.955Z,17.00
2019-02-25T12:31:29.751Z,16.90
2019-02-25T12:34:01.617Z,17.10
2019-02-25T12:36:33.502Z,17.10
2019-02-25T12:39:07.284Z,17.10
2019-02-25T12:41:40.638Z,17.20
2019-02-25T12:44:12.459Z,17.20
2019-02-25T12:46:44.349Z,17.20
2019-02-25T12:49:16.189Z,17.30
2019-02-25T12:51:47.991Z,17.30
2019-02-25T12:54:19.862Z,17.30
2019-02-25T12:56:51.749Z,17.30
2019-02-25T12:59:23.561Z,17.50
2019-02-25T13:01:56.434Z,17.60
2019-02-25T13:04:28.243Z,17.70
2019-02-25T13:07:00.128Z,17.70
2019-02-25T13:09:32.007Z,17.80
2019-02-25T13:12:03.891Z,17.80
2019-02-25T13:14:35.740Z,17.90
2019-02-25T13:17:07.624Z,17.90
2019-02-25T13:19:40.016Z,18.00
2019-02-25T13:22:11.832Z,18.00
2019-02-25T13:24:43.648Z,18.00
2019-02-25T13:27:15.528Z,18.00
2019-02-25T13:29:49.529Z,17.90
2019-02-25T13:32:20.971Z,17.70
2019-02-25T13:34:52.832Z,17.60
2019-02-25T13:37:27.309Z,17.50
2019-02-25T13:40:01.684Z,17.50
2019-02-25T13:42:35.502Z,17.40
2019-02-25T13:45:08.823Z,17.50
2019-02-25T13:47:42.004Z,17.60
2019-02-25T13:50:15.379Z,17.80
2019-02-25T13:52:50.096Z,18.10
2019-02-25T13:55:23.703Z,18.60
2019-02-25T13:57:57.611Z,19.10
2019-02-25T14:00:32.339Z,19.40
2019-02-25T14:03:07.779Z,19.80
2019-02-25T14:05:40.810Z,19.90
2019-02-25T14:08:13.868Z,19.90
2019-02-25T14:10:45.916Z,19.90
2019-02-25T14:13:17.776Z,19.80
2019-02-25T14:15:49.642Z,19.50
2019-02-25T14:18:22.586Z,19.30
2019-02-25T14:20:54.508Z,19.10
2019-02-25T14:23:29.199Z,18.90
2019-02-25T14:26:02.190Z,18.70
2019-02-25T14:28:35.025Z,18.60
2019-02-25T14:31:08.067Z,18.40
2019-02-25T14:33:41.608Z,18.50
2019-02-25T14:36:15.883Z,18.50
2019-02-25T14:38:51.346Z,18.50
2019-02-25T14:41:27.173Z,18.50
2019-02-25T14:44:00.554Z,18.40
2019-02-25T14:46:33.681Z,18.30
2019-02-25T14:49:08.210Z,18.10
2019-02-25T14:51:41.541Z,18.10
2019-02-25T14:54:16.456Z,18.10
2019-02-25T14:56:51.907Z,18.10
2019-02-25T14:59:25.417Z,17.90
2019-02-25T15:02:01.505Z,17.70
2019-02-25T15:04:37.418Z,17.40
2019-02-25T15:07:10.803Z,17.30
2019-02-25T15:09:45.714Z,17.20
2019-02-25T15:12:20.762Z,17.20
2019-02-25T15:14:58.050Z,17.10
2019-02-25T15:17:33.216Z,17.10
2019-02-25T15:20:06.517Z,17.00
2019-02-25T15:22:42.463Z,17.00
2019-02-25T15:25:16.451Z,17.00
2019-02-25T15:27:49.343Z,16.80
2019-02-25T15:30:27.457Z,16.70
2019-02-25T15:32:59.110Z,16.50
2019-02-25T15:35:35.171Z,16.30
2019-02-25T15:38:08.963Z,16.20
2019-02-25T15:40:42.570Z,16.10
2019-02-25T15:43:17.548Z,16.00
2019-02-25T15:45:50.278Z,15.90
2019-02-25T15:48:23.892Z,15.70
2019-02-25T15:50:58.645Z,15.60
2019-02-25T15:53:31.099Z,15.40
2019-02-25T15:56:07.649Z,15.10
2019-02-25T15:58:40.708Z,14.90
2019-02-25T16:01:13.888Z,14.70
2019-02-25T16:03:48.910Z,14.50
2019-02-25T16:06:27.024Z,14.40
2019-02-25T16:08:59.179Z,14.30
2019-02-25T16:11:33.290Z,14.10
2019-02-25T16:14:07.308Z,14.00
2019-02-25T16:16:40.502Z,14.00
2019-02-25T16:19:13.739Z,13.90
2019-02-25T16:21:48.400Z,13.80
2019-02-25T16:24:24.419Z,13.70
2019-02-25T16:26:58.406Z,13.50
2019-02-25T16:29:31.961Z,13.40
2019-02-25T16:32:06.604Z,13.30
2019-02-25T16:34:40.473Z,13.10
2019-02-25T16:37:14.087Z,13.00
2019-02-25T16:39:48.148Z,12.80
2019-02-25T16:42:25.915Z,12.60
2019-02-25T16:45:01.331Z,12.40
2019-02-25T16:47:37.707Z,12.20
2019-02-25T16:50:11.817Z,12.10
2019-02-25T16:52:47.339Z,12.00
2019-02-25T16:55:22.646Z,11.80
2019-02-25T16:57:56.000Z,11.60
2019-02-25T17:00:32.426Z,11.50
2019-02-25T17:03:06.601Z,11.30
2019-02-25T17:05:42.901Z,11.10
2019-02-25T17:08:19.291Z,11.00
2019-02-25T17:10:53.447Z,10.80
2019-02-25T17:13:26.592Z,10.70
2019-02-25T17:16:02.735Z,10.50
2019-02-25T17:18:33.939Z,10.40
2019-02-25T17:21:08.436Z,10.20
2019-02-25T17:23:42.825Z,10.10
2019-02-25T17:26:17.317Z,9.90
2019-02-25T17:28:48.730Z,9.80
2019-02-25T17:31:32.351Z,9.70
2019-02-25T17:34:09.945Z,9.60
2019-02-25T17:36:44.751Z,9.50
2019-02-25T17:39:18.594Z,9.40
2019-02-25T17:41:51.675Z,9.30
2019-02-25T17:44:28.369Z,9.10
2019-02-25T17:47:04.358Z,9.00
2019-02-25T17:49:38.054Z,8.90
2019-02-25T17:52:12.321Z,8.70
2019-02-25T17:54:45.110Z,8.60
2019-02-25T17:57:17.691Z,8.50
2019-02-25T17:59:52.848Z,8.50
2019-02-25T18:02:27.156Z,8.40
2019-02-25T18:05:00.700Z,8.40
2019-02-25T18:07:33.780Z,8.20
2019-02-25T18:10:08.240Z,8.10
2019-02-25T18:12:41.804Z,8.00
2019-02-25T18:15:17.800Z,7.90
2019-02-25T18:17:51.919Z,7.80
2019-02-25T18:20:25.148Z,7.70
2019-02-25T18:22:57.254Z,7.50
2019-02-25T18:25:30.379Z,7.50
2019-02-25T18:28:24.051Z,7.30
2019-02-25T18:30:59.669Z,7.30
2019-02-25T18:33:31.974Z,7.20
2019-02-25T18:36:13.156Z,7.10
2019-02-25T18:38:46.894Z,6.90
2019-02-25T18:41:21.548Z,6.80
2019-02-25T18:43:57.169Z,6.70
2019-02-25T18:46:36.879Z,6.60
2019-02-25T18:49:09.613Z,6.50
2019-02-25T18:51:43.562Z,6.40
2019-02-25T18:54:16.935Z,6.30
2019-02-25T18:56:50.068Z,6.40
2019-02-25T18:59:34.291Z,6.30
2019-02-25T19:02:32.010Z,6.40
2019-02-25T19:05:14.008Z,6.30
2019-02-25T19:07:57.563Z,6.20
2019-02-25T19:10:31.215Z,6.10
2019-02-25T19:13:04.042Z,5.90
2019-02-25T19:15:37.442Z,5.80
2019-02-25T19:18:12.719Z,5.70
2019-02-25T19:20:47.608Z,5.70
2019-02-25T19:23:20.457Z,5.60
2019-02-25T19:25:56.106Z,5.50
2019-02-25T19:28:30.754Z,5.40
2019-02-25T19:31:08.142Z,5.40
2019-02-25T19:33:37.898Z,5.30
2019-02-25T19:36:09.799Z,5.30
2019-02-25T19:38:44.118Z,5.20
2019-02-25T19:41:17.646Z,5.20
2019-02-25T19:43:58.657Z,5.10
2019-02-25T19:46:24.786Z,5.00
2019-02-25T19:48:57.117Z,5.00
2019-02-25T19:51:29.783Z,4.90
2019-02-25T19:54:02.590Z,4.90
2019-02-25T19:56:35.718Z,4.80
2019-02-25T19:59:08.050Z,4.70
2019-02-25T20:01:40.487Z,4.70
2019-02-25T20:04:14.139Z,4.70
2019-02-25T20:06:47.150Z,4.70
2019-02-25T20:09:21.405Z,4.70
2019-02-25T20:11:54.628Z,4.60
2019-02-25T20:14:26.860Z,4.60
2019-02-25T20:17:02.769Z,4.50
2019-02-25T20:19:39.016Z,4.40
2019-02-25T20:22:12.030Z,4.30
2019-02-25T20:24:46.592Z,4.20
2019-02-25T20:27:20.859Z,4.10
2019-02-25T20:29:53.308Z,4.00
2019-02-25T20:32:25.146Z,4.00
2019-02-25T20:34:58.811Z,3.90
2019-02-25T20:37:33.863Z,3.80
2019-02-25T20:40:06.463Z,3.80
2019-02-25T20:42:39.865Z,3.70
2019-02-25T20:45:19.128Z,3.60
2019-02-25T20:47:50.121Z,3.60
2019-02-25T20:50:23.513Z,3.50
2019-02-25T20:52:57.781Z,3.40
2019-02-25T20:55:33.884Z,3.40
2019-02-25T20:58:06.887Z,3.30
2019-02-25T21:00:39.795Z,3.30
2019-02-25T21:03:16.001Z,3.20
2019-02-25T21:05:47.560Z,3.10
2019-02-25T21:08:21.309Z,3.10
2019-02-25T21:10:53.787Z,3.00
2019-02-25T21:13:29.286Z,3.00
2019-02-25T21:16:02.540Z,3.00
2019-02-25T21:18:34.453Z,2.90
2019-02-25T21:21:10.101Z,2.80
2019-02-25T21:23:41.509Z,2.70
2019-02-25T21:26:13.657Z,2.70
2019-02-25T21:28:45.848Z,2.60
2019-02-25T21:31:20.932Z,2.60
2019-02-25T21:33:54.238Z,2.60
2019-02-25T21:36:27.715Z,2.60
2019-02-25T21:39:01.337Z,2.60
2019-02-25T21:41:37.011Z,2.50
2019-02-25T21:44:09.262Z,2.50
2019-02-25T21:46:43.749Z,2.50
2019-02-25T21:49:17.012Z,2.40
2019-02-25T21:51:49.307Z,2.40
2019-02-25T21:54:22.324Z,2.40
2019-02-25T21:56:54.447Z,2.30
2019-02-25T21:59:26.627Z,2.30
2019-02-25T22:02:01.586Z,2.30
2019-02-25T22:04:33.733Z,2.30
2019-02-25T22:07:05.770Z,2.30
2019-02-25T22:09:41.344Z,2.30
2019-02-25T22:12:13.246Z,2.30
2019-02-25T22:14:46.096Z,2.30
2019-02-25T22:17:20.800Z,2.30
2019-02-25T22:19:53.339Z,2.20
2019-02-25T22:22:26.921Z,2.20
2019-02-25T22:25:04.092Z,2.10
2019-02-25T22:27:37.372Z,2.00
2019-02-25T22:30:12.898Z,1.90
2019-02-25T22:32:45.153Z,1.90
2019-02-25T22:35:18.439Z,1.80
2019-02-25T22:37:52.696Z,1.80
2019-02-25T22:40:24.122Z,1.80
2019-02-25T22:42:56.801Z,1.70
2019-02-25T22:45:31.444Z,1.70
2019-02-25T22:48:03.811Z,1.70
2019-02-25T22:50:37.737Z,1.60
2019-02-25T22:53:11.295Z,1.60
2019-02-25T22:55:44.786Z,1.50
2019-02-25T22:58:17.130Z,1.40
2019-02-25T23:00:58.339Z,1.40
2019-02-25T23:03:29.951Z,1.40
2019-02-25T23:06:01.959Z,1.40
2019-02-25T23:08:34.152Z,1.40
2019-02-25T23:11:09.972Z,1.30
2019-02-25T23:13:42.774Z,1.30
2019-02-25T23:16:15.620Z,1.30
2019-02-25T23:18:49.056Z,1.30
2019-02-25T23:21:23.857Z,1.20
2019-02-25T23:23:57.703Z,1.20
2019-02-25T23:26:30.438Z,1.10
2019-02-25T23:29:02.428Z,1.10
2019-02-25T23:31:34.530Z,1.10
2019-02-25T23:34:08.007Z,1.00
2019-02-25T23:36:42.865Z,1.00
2019-02-25T23:39:17.112Z,0.90
2019-02-25T23:41:50.325Z,0.90
2019-02-25T23:44:24.685Z,0.90
2019-02-25T23:46:59.699Z,0.80
2019-02-25T23:49:30.942Z,0.80
2019-02-25T23:52:04.311Z,0.70
2019-02-25T23:54:36.339Z,0.70
2019-02-25T23:57:08.264Z,0.70
2019-02-25T23:59:42.484Z,0.60
